Time;durP1;ratioP1;P1;durP2;ratioP2;P2;SDS_P1;SDS_P2;PMS_P1;PMS_P2;Temp;Humidity;BMP_temperature;BMP_pressure;BME280_temperature;BME280_humidity;BME280_pressure;Samples;Min_cycle;Max_cycle;Signal;HPM_P1;HPM_P2
2021/10/28 00:14:29;;;;;;;19.42;10.07;;;10.30;90.70;;;;;;5086009;28;20063;-76
2021/10/28 00:16:57;;;;;;;15.68;9.70;;;10.30;90.60;;;;;;5076647;28;20024;-76
2021/10/28 00:19:23;;;;;;;18.58;9.32;;;10.40;90.70;;;;;;5078202;28;20063;-76
2021/10/28 00:21:49;;;;;;;14.48;9.02;;;10.40;90.60;;;;;;5078051;28;20017;-76
2021/10/28 00:24:16;;;;;;;15.82;8.52;;;10.50;90.50;;;;;;5077872;28;20113;-76
2021/10/28 00:26:44;;;;;;;14.77;8.70;;;10.50;90.30;;;;;;5077736;28;20392;-76
2021/10/28 00:29:15;;;;;;;16.33;9.00;;;10.60;90.50;;;;;;5077472;28;20444;-76
2021/10/28 00:31:42;;;;;;;14.48;8.65;;;10.60;90.40;;;;;;5078039;28;20028;-75
2021/10/28 00:34:10;;;;;;;15.90;8.73;;;10.60;90.30;;;;;;5096949;28;20403;-76
2021/10/28 00:36:37;;;;;;;14.85;8.68;;;10.70;90.30;;;;;;5077946;28;20033;-76
2021/10/28 00:39:06;;;;;;;16.60;9.43;;;10.70;90.40;;;;;;5077734;28;20078;-76
2021/10/28 00:41:32;;;;;;;16.17;8.82;;;10.70;90.40;;;;;;5078062;28;20025;-76
2021/10/28 00:44:00;;;;;;;18.67;9.95;;;10.70;90.30;;;;;;5075947;28;20031;-76
2021/10/28 00:46:29;;;;;;;16.58;8.93;;;10.80;90.40;;;;;;5077713;28;20024;-76
2021/10/28 00:48:55;;;;;;;14.85;9.35;;;10.80;90.30;;;;;;5077716;28;20025;-76
2021/10/28 00:51:24;;;;;;;16.52;9.73;;;10.80;90.20;;;;;;5077628;28;20390;-76
2021/10/28 00:53:51;;;;;;;20.02;9.63;;;10.80;90.30;;;;;;5076112;28;20103;-76
2021/10/28 00:56:18;;;;;;;19.70;9.73;;;10.90;90.40;;;;;;5076313;28;20077;-76
2021/10/28 00:58:44;;;;;;;18.35;9.75;;;10.90;90.50;;;;;;5077159;28;20395;-76
2021/10/28 01:01:10;;;;;;;14.68;8.32;;;10.90;90.40;;;;;;5077663;28;20099;-76
2021/10/28 01:03:38;;;;;;;16.83;8.70;;;10.90;90.20;;;;;;5092183;28;20055;-76
2021/10/28 01:06:06;;;;;;;16.90;8.02;;;10.90;90.20;;;;;;5086678;28;20108;-76
2021/10/28 01:08:33;;;;;;;20.73;8.82;;;11.00;90.10;;;;;;5076017;28;20475;-76
2021/10/28 01:10:59;;;;;;;15.95;8.90;;;11.00;90.10;;;;;;5077049;28;20518;-76
2021/10/28 01:13:26;;;;;;;17.50;10.10;;;11.00;90.10;;;;;;5090594;28;20024;-75
2021/10/28 01:15:54;;;;;;;15.07;8.65;;;11.00;90.10;;;;;;5077295;28;20130;-76
2021/10/28 01:18:20;;;;;;;16.70;9.35;;;11.00;90.00;;;;;;5077155;28;20028;-76
2021/10/28 01:20:49;;;;;;;19.55;10.55;;;11.00;90.00;;;;;;5077411;28;20098;-76
2021/10/28 01:23:16;;;;;;;18.45;11.07;;;11.10;90.10;;;;;;5077199;28;20021;-76
2021/10/28 01:25:51;;;;;;;23.70;11.70;;;11.10;90.10;;;;;;5077403;28;20032;-76
2021/10/28 01:28:18;;;;;;;23.08;11.13;;;11.10;90.20;;;;;;5084037;28;20032;-76
2021/10/28 01:30:52;;;;;;;24.55;12.25;;;11.10;90.20;;;;;;5082200;28;20032;-76
2021/10/28 01:33:19;;;;;;;23.50;12.77;;;11.10;90.30;;;;;;5091151;28;20030;-75
2021/10/28 01:35:45;;;;;;;28.92;14.57;;;11.10;90.30;;;;;;5082255;28;20028;-76
2021/10/28 01:38:13;;;;;;;22.17;12.88;;;11.10;90.40;;;;;;5076890;28;20044;-76
2021/10/28 01:40:40;;;;;;;26.02;12.85;;;11.10;90.40;;;;;;5079889;28;20021;-76
2021/10/28 01:43:07;;;;;;;24.73;11.95;;;11.10;90.30;;;;;;5079802;28;20028;-75
2021/10/28 01:45:33;;;;;;;22.92;12.02;;;11.10;90.30;;;;;;5080720;28;20134;-76
2021/10/28 01:48:01;;;;;;;25.80;13.57;;;11.10;90.30;;;;;;5081242;28;20070;-76
2021/10/28 01:50:31;;;;;;;24.73;11.85;;;11.10;90.30;;;;;;5080895;28;20028;-75
2021/10/28 01:52:58;;;;;;;23.80;12.73;;;11.10;90.30;;;;;;5081058;28;20054;-76
2021/10/28 01:55:24;;;;;;;24.40;12.20;;;11.10;90.30;;;;;;5080682;28;20059;-76
2021/10/28 01:57:50;;;;;;;24.10;12.25;;;11.10;90.30;;;;;;5080977;28;20017;-76
2021/10/28 02:00:19;;;;;;;24.75;12.90;;;11.20;90.30;;;;;;5080743;28;20028;-76
2021/10/28 02:02:45;;;;;;;24.98;12.70;;;11.20;90.50;;;;;;5088554;28;20027;-76
2021/10/28 02:05:15;;;;;;;23.48;13.65;;;11.20;90.50;;;;;;5098466;28;20027;-76
2021/10/28 02:07:42;;;;;;;23.08;11.68;;;11.20;90.50;;;;;;5080924;28;20027;-76
2021/10/28 02:10:09;;;;;;;21.33;11.65;;;11.20;90.60;;;;;;5084363;28;20048;-76
2021/10/28 02:12:36;;;;;;;28.02;13.68;;;11.20;90.40;;;;;;5090468;28;20021;-76
2021/10/28 02:15:10;;;;;;;28.70;12.63;;;11.20;90.80;;;;;;5080152;28;20029;-76
2021/10/28 02:17:37;;;;;;;22.40;13.68;;;11.20;90.80;;;;;;5080663;28;20016;-76
2021/10/28 02:20:07;;;;;;;25.20;12.50;;;11.20;90.80;;;;;;5078940;28;20028;-76
2021/10/28 02:22:34;;;;;;;22.10;12.02;;;11.20;90.80;;;;;;5080280;28;20104;-75
2021/10/28 02:25:00;;;;;;;23.00;12.60;;;11.30;91.00;;;;;;5078763;28;20029;-76
2021/10/28 02:27:26;;;;;;;26.08;12.35;;;11.20;90.70;;;;;;5080451;28;20612;-76
2021/10/28 02:29:52;;;;;;;21.73;11.02;;;11.30;90.70;;;;;;5079833;28;20024;-75
2021/10/28 02:32:18;;;;;;;22.98;11.13;;;11.30;90.70;;;;;;5085408;28;20031;-75
2021/10/28 02:34:44;;;;;;;22.67;11.95;;;11.30;90.60;;;;;;5094039;28;20051;-75
2021/10/28 02:37:10;;;;;;;23.60;11.68;;;11.30;90.60;;;;;;5080002;28;20049;-76
2021/10/28 02:39:37;;;;;;;23.98;11.93;;;11.30;90.50;;;;;;5079988;28;20491;-76
2021/10/28 02:42:03;;;;;;;25.05;11.27;;;11.30;90.50;;;;;;5080127;28;20028;-76
2021/10/28 02:44:29;;;;;;;21.80;10.70;;;11.30;90.50;;;;;;5086565;28;20020;-75
2021/10/28 02:46:55;;;;;;;22.33;11.38;;;11.30;90.40;;;;;;5086559;28;20016;-76
2021/10/28 02:49:21;;;;;;;24.20;11.70;;;11.30;90.50;;;;;;5080012;28;20025;-76
2021/10/28 02:51:47;;;;;;;22.88;11.52;;;11.30;90.50;;;;;;5079597;28;20383;-76
2021/10/28 02:54:23;;;;;;;23.13;12.07;;;11.30;90.50;;;;;;5079721;28;20021;-76
2021/10/28 02:56:50;;;;;;;26.95;12.27;;;11.30;90.60;;;;;;5078249;28;20027;-76
2021/10/28 02:59:16;;;;;;;23.77;11.77;;;11.30;90.60;;;;;;5079545;28;20024;-76
2021/10/28 03:01:47;;;;;;;26.52;13.10;;;11.30;90.60;;;;;;5078175;28;20056;-76
2021/10/28 03:04:15;;;;;;;24.40;12.68;;;11.30;90.60;;;;;;5099892;28;20024;-76
2021/10/28 03:06:41;;;;;;;25.70;14.10;;;11.40;90.60;;;;;;5083550;28;20028;-76
2021/10/28 03:09:09;;;;;;;26.40;14.43;;;11.40;90.80;;;;;;5079606;28;20059;-76
2021/10/28 03:11:36;;;;;;;23.83;13.63;;;11.30;90.80;;;;;;5093635;28;20054;-76
2021/10/28 03:14:03;;;;;;;20.80;12.80;;;11.40;90.80;;;;;;5079230;28;20032;-76
2021/10/28 03:17:22;;;;;;;24.63;14.05;;;11.40;90.70;;;;;;5079300;28;20099;-76
2021/10/28 03:27:31;;;;;;;20.88;13.07;;;11.30;90.80;;;;;;5079437;28;20089;-76
2021/10/28 03:29:58;;;;;;;23.63;13.90;;;11.40;90.70;;;;;;5078975;28;20456;-76
2021/10/28 03:32:26;;;;;;;20.33;12.85;;;11.30;91.00;;;;;;5085147;28;20081;-76
2021/10/28 03:34:53;;;;;;;22.17;13.30;;;11.30;90.80;;;;;;5092299;28;20020;-76
2021/10/28 03:37:31;;;;;;;19.98;12.38;;;11.30;90.70;;;;;;5078842;28;20141;-76
2021/10/28 04:17:16;;;;;;;19.55;10.80;;;11.20;90.40;;;;;;5080140;28;20632;-76
2021/10/28 04:30:03;;;;;;;14.88;9.80;;;11.10;90.00;;;;;;5085576;28;20035;-76
2021/10/28 04:32:29;;;;;;;15.60;9.55;;;11.00;90.00;;;;;;5090074;28;20063;-76
2021/10/28 04:34:55;;;;;;;18.15;10.02;;;11.00;90.00;;;;;;5090591;28;20032;-76
2021/10/28 04:37:21;;;;;;;18.75;10.38;;;10.90;89.70;;;;;;5076277;28;20059;-76
2021/10/28 04:39:48;;;;;;;14.55;9.65;;;10.90;89.70;;;;;;5077760;28;20439;-76
2021/10/28 04:42:14;;;;;;;15.82;8.90;;;10.80;89.30;;;;;;5077781;28;20084;-75
2021/10/28 04:44:40;;;;;;;14.27;10.18;;;10.70;89.10;;;;;;5077543;28;20032;-76
2021/10/28 04:47:07;;;;;;;14.45;8.38;;;10.50;88.90;;;;;;5077815;28;20051;-76
2021/10/28 04:49:33;;;;;;;15.38;9.27;;;10.40;88.70;;;;;;5077743;28;20039;-76
2021/10/28 04:51:59;;;;;;;13.52;8.50;;;10.30;88.80;;;;;;5077533;28;20028;-76
2021/10/28 04:54:25;;;;;;;15.63;9.70;;;10.20;88.70;;;;;;5077653;28;20543;-76
2021/10/28 04:56:51;;;;;;;15.50;9.70;;;10.10;88.60;;;;;;5077340;28;20084;-75
2021/10/28 04:59:17;;;;;;;15.90;9.20;;;10.00;88.70;;;;;;5077361;28;20063;-76
2021/10/28 05:01:43;;;;;;;13.32;9.43;;;9.90;88.50;;;;;;5077274;28;20557;-76
2021/10/28 05:04:09;;;;;;;14.38;9.65;;;9.80;88.40;;;;;;5096954;28;20024;-76
2021/10/28 05:06:35;;;;;;;15.65;8.95;;;9.70;88.50;;;;;;5083464;28;20024;-76
2021/10/28 05:09:03;;;;;;;15.57;9.75;;;9.60;88.40;;;;;;5077528;28;20031;-76
2021/10/28 05:11:29;;;;;;;14.38;9.43;;;9.60;88.50;;;;;;5091487;28;20039;-76
2021/10/28 05:13:55;;;;;;;12.90;9.75;;;9.50;88.50;;;;;;5077084;28;20025;-76
2021/10/28 05:16:21;;;;;;;16.08;10.60;;;9.50;88.50;;;;;;5077350;28;20031;-76
2021/10/28 05:18:47;;;;;;;13.95;10.70;;;9.40;88.60;;;;;;5077295;28;20025;-76
2021/10/28 05:21:15;;;;;;;17.60;10.57;;;9.30;89.00;;;;;;5075888;28;20021;-76
2021/10/28 05:23:41;;;;;;;16.05;10.13;;;9.20;88.90;;;;;;5077185;28;20024;-76
2021/10/28 05:26:08;;;;;;;16.08;10.40;;;9.20;88.90;;;;;;5077182;28;20096;-76
2021/10/28 05:28:34;;;;;;;15.82;10.88;;;9.20;89.00;;;;;;5077050;28;20462;-76
2021/10/28 05:31:01;;;;;;;17.40;11.73;;;9.20;89.20;;;;;;5077217;28;20431;-76
2021/10/28 05:33:27;;;;;;;14.80;10.23;;;9.20;89.30;;;;;;5092188;28;20059;-76
2021/10/28 05:35:53;;;;;;;17.27;10.43;;;9.10;89.00;;;;;;5081214;28;20062;-76
2021/10/28 05:38:19;;;;;;;16.40;10.73;;;9.10;89.00;;;;;;5077023;28;20495;-76
2021/10/28 05:40:45;;;;;;;16.55;11.20;;;9.10;89.10;;;;;;5077060;28;20024;-76
2021/10/28 05:43:11;;;;;;;16.05;10.13;;;9.10;89.20;;;;;;5077085;28;20520;-76
2021/10/28 05:45:37;;;;;;;17.60;11.40;;;9.20;89.20;;;;;;5076952;28;20031;-76
2021/10/28 05:48:04;;;;;;;15.85;10.60;;;9.20;89.40;;;;;;5077166;28;20637;-76
2021/10/28 05:50:30;;;;;;;16.90;11.70;;;9.20;89.20;;;;;;5077044;28;20103;-76
2021/10/28 05:52:58;;;;;;;17.77;11.18;;;9.20;89.30;;;;;;5077167;28;20146;-76
2021/10/28 05:55:25;;;;;;;16.95;10.90;;;9.20;89.30;;;;;;5076734;28;20055;-76
2021/10/28 05:57:54;;;;;;;17.85;10.85;;;9.20;89.20;;;;;;5076966;28;20029;-76
2021/10/28 06:00:22;;;;;;;16.00;11.05;;;9.30;89.20;;;;;;5076643;28;20494;-76
2021/10/28 06:02:48;;;;;;;14.48;10.65;;;9.20;89.20;;;;;;5085015;28;20470;-76
2021/10/28 06:05:13;;;;;;;17.13;11.10;;;9.20;89.20;;;;;;5094393;28;20047;-76
2021/10/28 06:07:40;;;;;;;18.40;12.30;;;9.20;89.30;;;;;;5077021;28;20032;-76
2021/10/28 06:10:08;;;;;;;15.02;10.60;;;9.20;89.30;;;;;;5080042;28;20044;-76
2021/10/28 06:12:38;;;;;;;15.38;10.65;;;9.20;89.30;;;;;;5087126;28;20055;-75
2021/10/28 06:15:05;;;;;;;17.77;11.45;;;9.20;89.20;;;;;;5076463;28;20023;-76
2021/10/28 06:17:33;;;;;;;13.93;10.13;;;9.10;89.20;;;;;;5075488;28;20039;-76
2021/10/28 06:20:00;;;;;;;14.82;10.00;;;9.10;89.30;;;;;;5075365;28;20024;-76
2021/10/28 06:22:27;;;;;;;14.48;10.13;;;9.10;89.20;;;;;;5076750;28;20028;-75
2021/10/28 06:24:54;;;;;;;14.38;10.63;;;9.10;89.10;;;;;;5076529;28;20391;-76
2021/10/28 06:27:20;;;;;;;15.13;10.23;;;9.10;89.30;;;;;;5080472;28;20081;-76
2021/10/28 06:29:46;;;;;;;14.98;10.70;;;9.10;89.30;;;;;;5079915;28;20030;-76
2021/10/28 06:32:13;;;;;;;15.63;9.98;;;9.00;89.20;;;;;;5084897;28;20663;-76
2021/10/28 06:34:42;;;;;;;15.55;10.57;;;9.00;89.30;;;;;;5094692;28;20102;-76
2021/10/28 06:37:08;;;;;;;15.73;11.02;;;9.00;89.20;;;;;;5080071;28;20060;-76
2021/10/28 06:39:34;;;;;;;16.52;11.00;;;9.10;89.20;;;;;;5086997;28;20390;-75
2021/10/28 06:42:00;;;;;;;15.90;10.57;;;9.10;89.30;;;;;;5086694;28;20047;-74
2021/10/28 06:44:26;;;;;;;17.20;11.65;;;9.10;89.40;;;;;;5080073;28;20020;-78
2021/10/28 06:46:52;;;;;;;14.98;10.93;;;9.10;89.40;;;;;;5080028;28;20024;-78
2021/10/28 06:49:19;;;;;;;16.50;11.25;;;9.10;89.50;;;;;;5080127;28;20059;-75
2021/10/28 06:51:46;;;;;;;16.58;11.73;;;9.10;89.70;;;;;;5079787;28;20031;-77
2021/10/28 07:04:48;;;;;;;18.20;10.93;;;9.20;89.80;;;;;;5100338;28;20035;-83
2021/10/28 07:07:15;;;;;;;15.07;11.23;;;9.20;89.80;;;;;;5080126;28;20021;-87
2021/10/28 07:09:50;;;;;;;19.27;11.45;;;9.20;89.80;;;;;;5079953;28;20025;-83
2021/10/28 07:12:24;;;;;;;16.05;11.48;;;9.20;89.80;;;;;;5087356;28;20437;-85
2021/10/28 07:14:53;;;;;;;15.10;10.88;;;9.20;89.60;;;;;;5083563;28;20016;-83
2021/10/28 07:17:36;;;;;;;17.17;11.70;;;9.10;89.50;;;;;;5079841;28;20067;-80
2021/10/28 07:57:37;;;;;;;22.00;12.38;;;9.40;90.30;;;;;;5080173;28;20035;-77
2021/10/28 08:19:42;;;;;;;17.42;11.50;;;9.80;90.70;;;;;;5077823;28;20082;-77
2021/10/28 08:30:06;;;;;;;21.42;11.95;;;9.70;91.20;;;;;;5085847;28;20039;-76
2021/10/28 08:32:31;;;;;;;18.48;11.65;;;9.70;91.70;;;;;;5090248;28;20020;-76
2021/10/28 08:35:00;;;;;;;19.70;12.50;;;9.80;91.50;;;;;;5090210;28;20039;-76
2021/10/28 08:37:34;;;;;;;25.35;13.52;;;9.80;91.70;;;;;;5077531;28;20511;-76
2021/10/28 08:40:01;;;;;;;18.10;11.63;;;9.90;92.10;;;;;;5078021;28;20027;-76
2021/10/28 08:42:27;;;;;;;19.08;12.82;;;10.00;92.30;;;;;;5077714;28;20012;-76
2021/10/28 08:44:55;;;;;;;21.75;12.40;;;10.20;92.40;;;;;;5077603;28;20491;-76
2021/10/28 08:47:24;;;;;;;22.58;12.57;;;10.30;92.60;;;;;;5077668;28;20563;-76
2021/10/28 09:00:22;;;;;;;22.17;12.23;;;10.80;92.60;;;;;;5077542;28;20414;-76
2021/10/28 09:24:08;;;;;;;22.02;11.18;;;12.10;93.10;;;;;;5077483;28;20387;-76
2021/10/28 09:31:55;;;;;;;17.13;9.52;;;12.70;93.10;;;;;;5086700;28;20043;-77
2021/10/28 09:34:36;;;;;;;14.82;8.60;;;12.90;93.00;;;;;;5092322;28;20035;-77
2021/10/28 09:45:38;;;;;;;17.35;8.32;;;13.80;92.60;;;;;;5077045;28;20077;-75
2021/10/28 09:48:24;;;;;;;16.55;7.85;;;14.40;92.70;;;;;;5077406;28;20029;-76
2021/10/28 09:50:51;;;;;;;16.85;8.77;;;15.30;92.00;;;;;;5076924;28;20111;-74
2021/10/28 09:53:29;;;;;;;14.48;8.20;;;16.10;90.90;;;;;;5075773;28;20035;-74
2021/10/28 09:58:39;;;;;;;12.88;8.32;;;17.50;86.20;;;;;;5079099;28;20031;-76
2021/10/28 10:01:09;;;;;;;17.02;8.05;;;18.00;83.90;;;;;;5079024;28;20386;-77
2021/10/28 10:03:39;;;;;;;11.32;7.65;;;18.50;82.50;;;;;;5095492;28;20111;-77
2021/10/28 10:06:06;;;;;;;11.43;7.03;;;18.90;80.60;;;;;;5091342;28;20070;-76
2021/10/28 10:08:34;;;;;;;13.90;7.85;;;19.30;78.90;;;;;;5080925;28;20059;-76
2021/10/28 10:11:02;;;;;;;10.52;7.25;;;19.70;77.50;;;;;;5090543;28;20115;-77
2021/10/28 10:13:29;;;;;;;15.18;7.70;;;20.00;76.60;;;;;;5082801;28;20032;-76
2021/10/28 10:15:57;;;;;;;10.98;7.25;;;20.30;76.50;;;;;;5079292;28;20490;-80
2021/10/28 10:18:28;;;;;;;13.30;7.35;;;20.70;75.50;;;;;;5080593;28;20081;-76
2021/10/28 10:20:59;;;;;;;13.90;8.18;;;21.00;73.00;;;;;;5080545;28;20023;-76
2021/10/28 10:24:00;;;;;;;10.43;7.03;;;21.30;71.20;;;;;;5080399;28;20021;-76
2021/10/28 10:27:01;;;;;;;12.13;7.63;;;21.60;73.40;;;;;;5080310;28;20021;-76
2021/10/28 12:14:29;;;;;;;11.20;4.68;;;23.70;58.40;;;;;;5082169;28;20059;-77
2021/10/28 12:48:30;;;;;;;9.02;4.88;;;23.20;59.60;;;;;;5077718;28;20084;-77
2021/10/28 13:02:58;;;;;;;8.07;5.05;;;23.00;57.30;;;;;;5081017;28;20039;-77
2021/10/28 13:49:09;;;;;;;12.20;5.68;;;21.10;62.30;;;;;;5081043;28;20035;-77
2021/10/28 14:23:48;;;;;;;15.02;7.38;;;20.20;64.60;;;;;;5088318;28;20158;-77
2021/10/28 15:29:06;;;;;;;13.77;6.63;;;18.30;68.00;;;;;;5099422;28;20548;-76
2021/10/28 16:22:53;;;;;;;42.15;17.08;;;17.30;71.40;;;;;;5098663;28;20047;-76
2021/10/28 16:25:19;;;;;;;76.65;36.13;;;17.30;71.80;;;;;;5098669;28;20032;-76
2021/10/28 16:27:44;;;;;;;38.30;18.13;;;17.20;71.90;;;;;;5098369;28;20040;-76
2021/10/28 16:30:11;;;;;;;69.57;33.50;;;17.10;71.90;;;;;;5097193;28;20028;-76
2021/10/28 16:32:36;;;;;;;57.88;28.80;;;17.00;72.20;;;;;;5096997;28;20043;-76
2021/10/28 16:35:06;;;;;;;47.65;26.10;;;17.00;72.40;;;;;;5078038;28;20032;-76
2021/10/28 16:37:35;;;;;;;40.83;23.23;;;16.90;72.50;;;;;;5077764;28;20040;-76
2021/10/28 16:40:04;;;;;;;30.48;16.85;;;16.80;72.70;;;;;;5077940;28;20032;-76
2021/10/28 16:42:31;;;;;;;37.38;21.65;;;16.70;72.90;;;;;;5077732;28;20099;-76
2021/10/28 16:44:57;;;;;;;24.63;13.20;;;16.70;73.20;;;;;;5077714;28;20024;-76
2021/10/28 16:47:25;;;;;;;23.67;11.45;;;16.60;73.10;;;;;;5077822;28;20026;-76
2021/10/28 16:49:51;;;;;;;40.15;19.73;;;16.60;73.40;;;;;;5078074;28;20029;-76
2021/10/28 16:52:17;;;;;;;59.33;26.73;;;16.50;73.70;;;;;;5077593;28;20017;-76
2021/10/28 16:54:44;;;;;;;35.58;18.20;;;16.40;73.80;;;;;;5077680;28;20021;-76
2021/10/28 16:57:09;;;;;;;72.80;31.40;;;16.40;74.10;;;;;;5077584;28;20012;-76
2021/10/28 16:59:35;;;;;;;85.05;44.63;;;16.30;74.20;;;;;;5077307;28;20058;-76
2021/10/28 17:02:01;;;;;;;32.50;14.75;;;16.20;74.50;;;;;;5079158;28;20009;-76
2021/10/28 17:04:27;;;;;;;24.65;14.60;;;16.20;74.50;;;;;;5088370;28;20024;-76
2021/10/28 17:06:53;;;;;;;28.10;16.98;;;16.10;74.80;;;;;;5077469;28;20043;-76
2021/10/28 17:09:20;;;;;;;62.50;37.13;;;16.00;74.70;;;;;;5077379;28;20496;-76
2021/10/28 17:11:46;;;;;;;35.50;21.00;;;16.00;75.00;;;;;;5077447;28;20078;-76
2021/10/28 17:14:12;;;;;;;51.72;28.52;;;15.90;75.10;;;;;;5077217;28;20037;-77
2021/10/28 17:16:44;;;;;;;81.15;43.53;;;15.90;75.60;;;;;;5077341;28;20035;-77
2021/10/28 17:19:11;;;;;;;36.80;22.90;;;15.80;75.70;;;;;;5077445;28;20032;-76
2021/10/28 17:21:37;;;;;;;55.08;33.60;;;15.80;75.90;;;;;;5077240;28;20108;-76
2021/10/28 17:24:12;;;;;;;33.45;21.85;;;15.70;76.00;;;;;;5077318;28;20056;-77
2021/10/28 17:26:37;;;;;;;22.50;12.02;;;15.60;76.40;;;;;;5077251;28;20107;-77
2021/10/28 17:29:04;;;;;;;27.00;14.80;;;15.70;76.70;;;;;;5077114;28;20060;-77
2021/10/28 17:31:35;;;;;;;40.72;25.52;;;15.60;76.80;;;;;;5077350;28;20031;-77
2021/10/28 17:34:03;;;;;;;94.45;44.30;;;15.60;77.20;;;;;;5083867;28;20469;-77
2021/10/28 17:36:30;;;;;;;57.10;29.90;;;15.50;77.20;;;;;;5077526;28;20019;-77
2021/10/28 17:38:56;;;;;;;54.15;29.88;;;15.40;77.50;;;;;;5077100;28;20059;-77
2021/10/28 17:41:22;;;;;;;22.23;13.38;;;15.40;77.40;;;;;;5084711;28;20463;-77
2021/10/28 17:43:54;;;;;;;28.08;16.92;;;15.40;77.80;;;;;;5097019;28;20055;-77
2021/10/28 17:46:24;;;;;;;29.30;15.20;;;15.30;77.80;;;;;;5097603;28;20028;-77
2021/10/28 17:48:50;;;;;;;23.83;13.60;;;15.30;77.90;;;;;;5097270;28;20056;-77
2021/10/28 17:51:17;;;;;;;41.00;22.98;;;15.20;78.00;;;;;;5097391;28;20130;-76
2021/10/28 17:53:44;;;;;;;49.05;27.33;;;15.20;78.00;;;;;;5097166;28;20467;-77
2021/10/28 17:56:17;;;;;;;56.67;32.35;;;15.10;78.10;;;;;;5097587;28;20028;-77
2021/10/28 17:58:44;;;;;;;35.78;21.85;;;15.10;78.70;;;;;;5096946;28;20486;-77
2021/10/28 18:01:11;;;;;;;33.28;18.15;;;15.10;79.20;;;;;;5097278;28;20490;-77
2021/10/28 18:03:37;;;;;;;45.22;24.10;;;15.00;79.40;;;;;;5093032;28;20066;-77
2021/10/28 18:06:03;;;;;;;31.85;17.88;;;15.00;79.40;;;;;;5077023;28;20017;-76
2021/10/28 18:08:28;;;;;;;32.90;18.30;;;15.00;79.70;;;;;;5077060;28;20063;-77
2021/10/28 18:10:54;;;;;;;32.22;18.02;;;15.00;79.80;;;;;;5075503;28;20047;-77
2021/10/28 18:13:20;;;;;;;44.00;25.90;;;14.90;79.70;;;;;;5076568;28;20035;-77
2021/10/28 18:15:47;;;;;;;63.70;36.85;;;14.90;79.90;;;;;;5077024;28;20129;-77
2021/10/28 18:18:13;;;;;;;100.70;50.45;;;14.90;80.10;;;;;;5076742;28;20433;-77
2021/10/28 18:20:39;;;;;;;42.17;20.33;;;14.80;80.10;;;;;;5077102;28;20021;-77
2021/10/28 18:23:06;;;;;;;50.97;27.95;;;14.80;80.30;;;;;;5080351;28;20040;-77
2021/10/28 18:25:32;;;;;;;61.25;34.42;;;14.70;80.20;;;;;;5080515;28;20025;-77
2021/10/28 18:27:59;;;;;;;58.25;34.35;;;14.70;80.50;;;;;;5080093;28;20028;-78
2021/10/28 18:30:28;;;;;;;87.40;43.95;;;14.70;80.60;;;;;;5080458;28;20084;-77
2021/10/28 18:32:54;;;;;;;85.53;39.13;;;14.60;80.90;;;;;;5086840;28;20433;-77
2021/10/28 18:35:20;;;;;;;46.50;22.77;;;14.60;81.20;;;;;;5080490;28;20548;-76
2021/10/28 18:37:48;;;;;;;53.97;25.77;;;14.60;81.90;;;;;;5080004;28;20056;-77
2021/10/28 18:40:15;;;;;;;39.33;22.98;;;14.60;81.60;;;;;;5080408;28;20028;-77
2021/10/28 18:42:42;;;;;;;28.73;16.10;;;14.60;81.50;;;;;;5080210;28;20054;-77
2021/10/28 18:45:09;;;;;;;26.13;13.63;;;14.50;81.50;;;;;;5078745;28;20016;-77
2021/10/28 18:47:35;;;;;;;31.42;18.23;;;14.50;81.60;;;;;;5080377;28;20042;-77
2021/10/28 18:50:04;;;;;;;32.70;21.80;;;14.50;82.20;;;;;;5080096;28;20028;-77
2021/10/28 18:52:30;;;;;;;43.45;29.98;;;14.40;82.20;;;;;;5078552;28;20016;-77
2021/10/28 18:54:57;;;;;;;50.97;30.63;;;14.40;82.10;;;;;;5080013;28;20090;-77
2021/10/28 18:57:23;;;;;;;44.17;26.63;;;14.40;82.10;;;;;;5079867;28;20027;-77
2021/10/28 18:59:49;;;;;;;35.10;22.88;;;14.30;82.50;;;;;;5079771;28;20020;-77
2021/10/28 19:02:15;;;;;;;47.58;29.83;;;14.30;83.00;;;;;;5083319;28;20089;-78
2021/10/28 19:04:42;;;;;;;41.88;27.50;;;14.30;82.80;;;;;;5088304;28;20017;-77
2021/10/28 19:07:09;;;;;;;39.47;21.52;;;14.30;83.00;;;;;;5079205;28;20031;-78
2021/10/28 19:09:35;;;;;;;42.53;25.23;;;14.20;83.30;;;;;;5079597;28;20021;-76
2021/10/28 19:12:01;;;;;;;41.33;24.98;;;14.20;83.00;;;;;;5079568;28;20046;-76
2021/10/28 19:14:29;;;;;;;45.92;25.23;;;14.20;83.20;;;;;;5079460;28;20032;-76
2021/10/28 19:16:55;;;;;;;50.80;31.75;;;14.20;83.50;;;;;;5078731;28;20034;-76
2021/10/28 19:19:21;;;;;;;38.35;22.40;;;14.10;83.80;;;;;;5078155;28;20024;-76
2021/10/28 19:21:47;;;;;;;30.20;18.05;;;14.10;84.10;;;;;;5079392;28;20025;-75
2021/10/28 19:24:13;;;;;;;30.00;16.40;;;14.10;84.50;;;;;;5079306;28;20071;-75
2021/10/28 19:26:40;;;;;;;32.00;18.77;;;14.10;84.70;;;;;;5079260;28;20029;-75
2021/10/28 19:29:07;;;;;;;28.83;14.00;;;14.10;84.30;;;;;;5079126;28;20414;-75
2021/10/28 19:31:40;;;;;;;32.92;15.73;;;14.10;84.50;;;;;;5079196;28;20031;-76
2021/10/28 19:34:06;;;;;;;37.25;19.65;;;14.00;84.50;;;;;;5079090;28;20020;-76
2021/10/28 19:36:37;;;;;;;39.85;21.50;;;14.00;85.20;;;;;;5077736;28;20025;-76
2021/10/28 19:42:04;;;;;;;24.50;13.10;;;14.00;85.30;;;;;;5079635;28;20039;-76
2021/10/28 19:47:14;;;;;;;33.60;17.35;;;14.00;84.80;;;;;;5078911;28;20047;-75
2021/10/28 19:49:45;;;;;;;25.20;13.30;;;13.90;85.20;;;;;;5079017;28;20028;-75
2021/10/28 19:52:13;;;;;;;24.58;12.13;;;13.90;85.30;;;;;;5078827;28;20054;-75
2021/10/28 19:54:41;;;;;;;22.88;12.90;;;13.90;85.00;;;;;;5078813;28;20055;-76
2021/10/28 19:57:14;;;;;;;23.77;12.50;;;13.90;85.70;;;;;;5078756;28;20060;-76
2021/10/28 19:59:45;;;;;;;27.35;13.60;;;13.90;85.40;;;;;;5078320;28;20037;-76
2021/10/28 20:02:18;;;;;;;25.33;13.30;;;13.90;86.30;;;;;;5081602;28;20016;-76
2021/10/28 20:13:23;;;;;;;29.08;15.20;;;13.90;86.60;;;;;;5078151;28;20071;-75
2021/10/28 20:21:03;;;;;;;35.53;16.92;;;13.80;86.50;;;;;;5078580;28;20383;-76
2021/10/28 20:23:28;;;;;;;34.17;16.45;;;13.80;87.30;;;;;;5078379;28;20029;-76
2021/10/28 20:25:55;;;;;;;30.98;16.35;;;13.90;87.60;;;;;;5078153;28;20027;-75
2021/10/28 20:28:20;;;;;;;34.90;17.80;;;13.90;87.60;;;;;;5078038;28;20158;-76
2021/10/28 20:33:15;;;;;;;27.63;15.70;;;13.90;87.70;;;;;;5084677;28;20039;-76
2021/10/28 20:36:05;;;;;;;37.90;16.83;;;13.90;87.40;;;;;;5078146;28;20029;-76
2021/10/28 20:38:31;;;;;;;30.00;15.82;;;13.90;87.20;;;;;;5077736;28;20048;-75
2021/10/28 20:40:57;;;;;;;28.55;15.68;;;13.80;87.40;;;;;;5077703;28;20027;-75
2021/10/28 20:43:22;;;;;;;24.08;14.60;;;13.90;87.10;;;;;;5077826;28;20032;-75
2021/10/28 20:45:48;;;;;;;26.88;15.30;;;13.90;86.60;;;;;;5077329;28;20039;-75
2021/10/28 20:48:16;;;;;;;30.13;16.27;;;13.80;86.70;;;;;;5076771;28;20048;-75
2021/10/28 20:50:41;;;;;;;31.92;16.63;;;13.90;86.90;;;;;;5077616;28;20028;-75
2021/10/28 20:53:07;;;;;;;27.98;15.18;;;13.90;87.00;;;;;;5077729;28;20036;-75
2021/10/28 20:55:33;;;;;;;28.88;16.23;;;13.90;87.00;;;;;;5077478;28;20028;-75
2021/10/28 20:57:59;;;;;;;29.95;15.05;;;13.90;87.30;;;;;;5076066;28;20063;-75
2021/10/28 21:00:26;;;;;;;28.85;16.30;;;13.90;87.00;;;;;;5077553;28;20391;-75
2021/10/28 21:02:53;;;;;;;28.02;16.63;;;13.90;87.50;;;;;;5086567;28;20016;-76
2021/10/28 21:05:22;;;;;;;35.17;17.83;;;13.90;87.30;;;;;;5080692;28;20013;-75
2021/10/28 21:07:50;;;;;;;29.58;17.08;;;13.90;87.90;;;;;;5077762;28;20487;-75
2021/10/28 21:10:23;;;;;;;33.45;17.40;;;13.90;87.60;;;;;;5077344;28;20043;-76
2021/10/28 21:12:49;;;;;;;32.25;16.77;;;13.90;87.50;;;;;;5077425;28;20074;-75
2021/10/28 21:15:15;;;;;;;33.72;18.85;;;13.90;87.50;;;;;;5077503;28;20024;-75
2021/10/28 21:17:41;;;;;;;36.80;17.45;;;13.90;88.00;;;;;;5077356;28;20442;-75
2021/10/28 21:20:08;;;;;;;29.05;16.35;;;13.80;87.70;;;;;;5077340;28;20076;-75
2021/10/28 21:22:35;;;;;;;35.20;18.25;;;13.80;87.60;;;;;;5077691;28;20029;-75
2021/10/28 21:25:01;;;;;;;38.58;17.63;;;13.80;87.90;;;;;;5077155;28;20063;-75
2021/10/28 21:27:27;;;;;;;32.72;17.88;;;13.80;87.80;;;;;;5077375;28;20028;-75
2021/10/28 21:29:53;;;;;;;32.25;16.83;;;13.90;88.30;;;;;;5076996;28;20081;-76
2021/10/28 21:32:19;;;;;;;33.75;17.17;;;13.80;87.80;;;;;;5082764;28;20016;-75
2021/10/28 21:34:45;;;;;;;28.85;16.60;;;13.80;87.90;;;;;;5077948;28;20025;-76
2021/10/28 21:37:14;;;;;;;33.05;17.27;;;13.80;88.30;;;;;;5077194;28;20056;-76
2021/10/28 21:39:40;;;;;;;28.90;16.88;;;13.90;88.90;;;;;;5077347;28;20067;-76
2021/10/28 21:42:08;;;;;;;32.38;17.90;;;13.80;88.40;;;;;;5077103;28;20099;-76
2021/10/28 21:44:35;;;;;;;32.33;17.05;;;13.80;88.30;;;;;;5076906;28;20450;-75
2021/10/28 21:47:02;;;;;;;30.80;16.55;;;13.80;88.40;;;;;;5075829;28;20468;-76